createdAt,value
2023-04-11T00:00:13.068Z,10
2023-04-11T00:15:14.856Z,0
2023-04-11T00:30:16.631Z,0
2023-04-11T00:45:18.416Z,0
2023-04-11T01:00:20.185Z,0
2023-04-11T01:15:22.000Z,0
2023-04-11T01:30:23.781Z,0
2023-04-11T01:45:25.518Z,0
2023-04-11T02:00:27.242Z,0
2023-04-11T02:15:29.046Z,0
2023-04-11T02:30:30.810Z,0
2023-04-11T02:45:32.614Z,0
2023-04-11T03:00:34.427Z,0
2023-04-11T03:15:36.247Z,0
2023-04-11T03:30:37.985Z,0
2023-04-11T03:45:39.765Z,0
2023-04-11T04:00:41.489Z,0
2023-04-11T04:15:43.552Z,0
2023-04-11T04:30:45.320Z,0
2023-04-11T04:45:47.141Z,0
2023-04-11T05:00:48.988Z,0
2023-04-11T05:15:50.783Z,0
2023-04-11T05:30:52.584Z,0
2023-04-11T05:45:54.458Z,0
2023-04-11T06:00:56.238Z,0
2023-04-11T06:15:58.027Z,0
2023-04-11T06:30:59.941Z,0
2023-04-11T06:46:01.781Z,0
2023-04-11T07:01:03.525Z,0
2023-04-11T07:16:05.351Z,0
2023-04-11T07:31:07.194Z,0
2023-04-11T07:46:09.009Z,0
2023-04-11T08:01:10.795Z,0
2023-04-11T08:16:12.582Z,0
2023-04-11T08:31:14.396Z,0
2023-04-11T08:46:16.186Z,0
2023-04-11T09:01:17.896Z,0
2023-04-11T09:16:19.819Z,0
2023-04-11T09:31:21.782Z,0
2023-04-11T09:46:23.703Z,0
2023-04-11T10:01:25.516Z,0
2023-04-11T10:16:27.313Z,0
2023-04-11T10:31:29.133Z,0
2023-04-11T10:46:30.936Z,0
2023-04-11T11:01:42.835Z,0
2023-04-11T11:16:50.678Z,0
2023-04-11T11:31:52.519Z,0
2023-04-11T11:46:54.251Z,0
2023-04-11T12:01:56.058Z,0
2023-04-11T12:16:57.870Z,0
2023-04-11T12:31:59.670Z,0
2023-04-11T12:47:01.504Z,0
2023-04-11T13:02:03.375Z,0
2023-04-11T13:17:05.271Z,0
2023-04-11T13:32:07.014Z,0
2023-04-11T13:47:08.760Z,0
2023-04-11T14:02:10.562Z,0
2023-04-11T14:17:12.341Z,10
2023-04-11T14:32:14.065Z,10
2023-04-11T14:47:15.785Z,10
2023-04-11T15:02:17.575Z,10
2023-04-11T15:17:19.382Z,10
2023-04-11T15:32:21.147Z,20
2023-04-11T15:47:22.949Z,20
2023-04-11T16:02:24.928Z,10
2023-04-11T16:17:27.103Z,10
2023-04-11T16:32:28.842Z,40
2023-04-11T16:47:30.674Z,30
2023-04-11T17:02:32.624Z,40
2023-04-11T17:17:34.456Z,20
2023-04-11T17:32:38.106Z,30
2023-04-11T17:47:40.161Z,40
2023-04-11T18:02:42.129Z,10
2023-04-11T18:17:43.994Z,0
2023-04-11T18:32:49.445Z,0
2023-04-11T18:47:52.686Z,10
2023-04-11T19:02:54.681Z,20
2023-04-11T19:17:56.497Z,50
2023-04-11T19:32:58.280Z,60
2023-04-11T19:48:00.059Z,150
2023-04-11T20:03:02.044Z,120
2023-04-11T20:18:04.062Z,110
2023-04-11T20:33:05.885Z,200
2023-04-11T20:48:07.812Z,250
2023-04-11T21:03:09.691Z,200
2023-04-11T21:18:11.597Z,320
2023-04-11T21:33:13.385Z,150
2023-04-11T21:48:15.185Z,80
2023-04-11T22:03:17.210Z,70
2023-04-11T22:18:19.117Z,30
2023-04-11T22:33:20.821Z,10
2023-04-11T22:48:22.554Z,10
2023-04-11T23:03:24.308Z,70
2023-04-11T23:18:26.040Z,10
2023-04-11T23:33:27.779Z,10
2023-04-11T23:48:29.498Z,10
